Addyston, Ohio
Current Conditions -  °F | °C
As of 11:52 PM on Thursday 27 Nov 2014 (Local Time) from KCVG Reporting Station
Light Snow Light Snow  
Wind Chill: 19°   Ceiling: 3800
Heat Index: 28°   Visibility: 9mi
Dew Point: 17°   Wind: 9mph
Humidity: 63%   Direction: 300°WNW
Pressure: 30.39"   Gusts: NA
Location:  39.14°N, 84.71°W
Report Text: KCVG 280452Z 30008KT 9SM -SN OVC038 M02/M08 A3039 RMK AO2 SNB04 SLP297 P0000 T10221083 400171022
Loading
Personal Weather Stations






























Interactive Weather Map New forecast layout! Learn more

10-Day Weather Forecast

Advertisements
Track Severe Weather on mobile